createdAt,value
2022-12-15T00:01:30.536Z,5.28
2022-12-15T00:03:58.214Z,5.01
2022-12-15T00:06:24.684Z,5.06
2022-12-15T00:08:51.120Z,4.72
2022-12-15T00:11:17.541Z,4.66
2022-12-15T00:13:44.483Z,4.42
2022-12-15T00:16:11.110Z,4.03
2022-12-15T00:18:37.560Z,3.74
2022-12-15T00:21:04.281Z,3.86
2022-12-15T00:23:32.176Z,3.92
2022-12-15T00:25:59.442Z,3.66
2022-12-15T00:28:26.027Z,3.18
2022-12-15T00:30:54.033Z,2.78
2022-12-15T00:33:24.237Z,2.94
2022-12-15T00:35:50.842Z,3.33
2022-12-15T00:38:17.460Z,3.51
2022-12-15T00:40:44.314Z,3.87
2022-12-15T00:43:11.692Z,3.87
2022-12-15T00:45:38.316Z,4.49
2022-12-15T00:48:04.754Z,4.59
2022-12-15T00:50:31.163Z,4.27
2022-12-15T00:52:57.645Z,3.47
2022-12-15T00:55:24.851Z,2.79
2022-12-15T00:57:52.452Z,2.25
2022-12-15T01:00:19.050Z,2.04
2022-12-15T01:02:45.841Z,2.28
2022-12-15T01:05:13.231Z,2.08
2022-12-15T01:07:39.806Z,2.22
2022-12-15T01:10:06.253Z,2.60
2022-12-15T01:12:32.676Z,1.88
2022-12-15T01:14:59.109Z,2.15
2022-12-15T01:17:25.569Z,1.66
2022-12-15T01:19:51.994Z,1.60
2022-12-15T01:22:18.452Z,1.70
2022-12-15T01:24:47.699Z,1.86
2022-12-15T01:27:14.565Z,1.86
2022-12-15T01:29:41.192Z,2.18
2022-12-15T01:32:07.652Z,2.02
2022-12-15T01:34:34.338Z,1.94
2022-12-15T01:37:02.929Z,1.95
2022-12-15T01:39:29.525Z,3.35
2022-12-15T01:41:56.124Z,4.55
2022-12-15T01:44:22.724Z,4.89
2022-12-15T01:46:49.349Z,4.56
2022-12-15T01:49:15.995Z,3.99
2022-12-15T01:51:42.473Z,4.02
2022-12-15T01:54:09.177Z,4.74
2022-12-15T01:56:37.920Z,4.78
2022-12-15T01:59:05.395Z,4.96
2022-12-15T02:01:31.919Z,4.74
2022-12-15T02:03:58.566Z,4.37
2022-12-15T02:06:25.179Z,4.66
2022-12-15T02:08:51.590Z,4.32
2022-12-15T02:11:18.004Z,3.84
2022-12-15T02:13:44.394Z,2.70
2022-12-15T02:16:10.844Z,2.18
2022-12-15T02:18:37.328Z,2.28
2022-12-15T02:21:03.894Z,2.13
2022-12-15T02:23:30.748Z,2.06
2022-12-15T02:25:57.892Z,2.17
2022-12-15T02:28:24.501Z,2.43
2022-12-15T02:30:53.619Z,2.38
2022-12-15T02:33:20.685Z,2.18
2022-12-15T02:35:48.260Z,2.26
2022-12-15T02:38:14.667Z,2.80
2022-12-15T02:40:41.114Z,3.14
2022-12-15T02:43:07.522Z,3.17
2022-12-15T02:45:34.833Z,3.11
2022-12-15T02:48:01.417Z,3.05
2022-12-15T02:50:27.853Z,2.66
2022-12-15T02:52:54.487Z,2.76
2022-12-15T02:55:20.925Z,2.62
2022-12-15T02:57:47.366Z,2.61
2022-12-15T03:00:14.248Z,2.39
2022-12-15T03:02:40.816Z,2.38
2022-12-15T03:05:07.466Z,2.29
2022-12-15T03:07:34.029Z,2.50
2022-12-15T03:10:00.462Z,2.51
2022-12-15T03:12:27.285Z,2.47
2022-12-15T03:14:54.851Z,2.60
2022-12-15T03:17:21.443Z,2.79
2022-12-15T03:19:49.892Z,3.23
2022-12-15T03:22:17.641Z,2.94
2022-12-15T03:24:44.051Z,2.84
2022-12-15T03:27:10.874Z,3.47
2022-12-15T03:29:37.462Z,5.00
2022-12-15T03:32:04.125Z,5.70
2022-12-15T03:34:31.657Z,6.42
2022-12-15T03:36:58.086Z,6.25
2022-12-15T03:39:24.565Z,6.30
2022-12-15T03:41:50.991Z,6.44
2022-12-15T03:44:18.024Z,6.60
2022-12-15T03:46:45.615Z,6.91
2022-12-15T03:49:13.211Z,7.14
2022-12-15T03:51:39.708Z,7.19
2022-12-15T03:54:06.360Z,7.23
2022-12-15T03:56:32.775Z,7.03
2022-12-15T03:58:59.585Z,6.58
2022-12-15T04:01:27.236Z,6.94
2022-12-15T04:04:00.061Z,7.52
2022-12-15T04:06:27.145Z,8.40
2022-12-15T04:08:53.976Z,8.52
2022-12-15T04:11:20.559Z,8.05
2022-12-15T04:13:47.142Z,8.09
2022-12-15T04:16:19.522Z,7.29
2022-12-15T04:18:46.657Z,6.75
2022-12-15T04:21:13.937Z,6.28
2022-12-15T04:23:40.380Z,5.32
2022-12-15T04:26:07.124Z,4.72
2022-12-15T04:28:33.707Z,4.39
2022-12-15T04:31:00.331Z,3.55
2022-12-15T04:33:30.752Z,3.09
2022-12-15T04:35:58.521Z,2.74
2022-12-15T04:38:25.114Z,2.34
2022-12-15T04:40:51.716Z,2.45
2022-12-15T04:43:18.149Z,2.13
2022-12-15T04:45:44.600Z,2.13
2022-12-15T04:48:11.097Z,1.72
2022-12-15T04:50:37.493Z,1.35
2022-12-15T04:53:03.923Z,1.22
2022-12-15T04:55:30.356Z,1.04
2022-12-15T04:57:56.798Z,2.88
2022-12-15T05:00:23.227Z,4.49
2022-12-15T05:02:49.913Z,4.85
2022-12-15T05:05:16.412Z,4.42
2022-12-15T05:07:42.793Z,3.84
2022-12-15T05:10:14.607Z,3.47
2022-12-15T05:12:41.469Z,2.50
2022-12-15T05:15:07.914Z,1.51
2022-12-15T05:17:36.977Z,1.98
2022-12-15T05:20:07.637Z,5.53
2022-12-15T05:22:34.057Z,11.25
2022-12-15T05:25:00.467Z,13.58
2022-12-15T05:27:26.858Z,13.71
2022-12-15T05:29:53.273Z,13.22
2022-12-15T05:32:19.718Z,14.95
2022-12-15T05:34:46.143Z,14.57
2022-12-15T05:37:12.549Z,12.55
2022-12-15T05:39:38.987Z,9.51
2022-12-15T05:42:05.494Z,10.03
2022-12-15T05:44:31.877Z,9.90
2022-12-15T05:46:58.267Z,10.37
2022-12-15T05:49:24.698Z,11.21
2022-12-15T05:51:51.162Z,11.42
2022-12-15T05:54:17.589Z,10.81
2022-12-15T05:56:44.023Z,10.45
2022-12-15T05:59:10.452Z,10.42
2022-12-15T06:01:36.996Z,10.43
2022-12-15T06:04:03.457Z,9.14
2022-12-15T06:06:29.887Z,9.52
2022-12-15T06:08:56.315Z,9.04
2022-12-15T06:11:22.829Z,8.31
2022-12-15T06:13:49.352Z,8.41
2022-12-15T06:16:15.812Z,7.79
2022-12-15T06:18:42.258Z,7.57
2022-12-15T06:21:08.668Z,8.00
2022-12-15T06:23:35.150Z,9.70
2022-12-15T06:26:01.640Z,13.90
2022-12-15T06:28:28.045Z,24.12
2022-12-15T06:30:54.502Z,36.81
2022-12-15T06:33:20.990Z,31.54
2022-12-15T06:35:47.426Z,15.14
2022-12-15T06:38:13.856Z,13.92
2022-12-15T06:40:40.325Z,15.07
2022-12-15T06:43:06.744Z,16.77
2022-12-15T06:45:33.170Z,29.98
2022-12-15T06:48:01.522Z,36.03
2022-12-15T06:50:28.370Z,89.93
2022-12-15T06:52:54.824Z,91.29
2022-12-15T06:55:21.238Z,54.78
2022-12-15T06:57:47.687Z,65.37
2022-12-15T07:00:14.150Z,27.76
2022-12-15T07:02:40.747Z,16.98
2022-12-15T07:05:07.484Z,16.35
2022-12-15T07:07:34.170Z,17.11
2022-12-15T07:10:00.639Z,17.88
2022-12-15T07:12:27.090Z,19.11
2022-12-15T07:14:53.873Z,20.54
2022-12-15T07:17:20.319Z,19.94
2022-12-15T07:19:46.753Z,18.53
2022-12-15T07:22:13.160Z,23.64
2022-12-15T07:24:39.694Z,35.47
2022-12-15T07:27:06.109Z,29.06
2022-12-15T07:29:32.506Z,32.03
2022-12-15T07:31:58.992Z,22.03
2022-12-15T07:34:25.449Z,49.28
2022-12-15T07:36:52.858Z,127.98
2022-12-15T07:39:19.467Z,76.85
2022-12-15T07:41:46.033Z,91.14
2022-12-15T07:44:12.448Z,41.51
2022-12-15T07:46:38.977Z,27.31
2022-12-15T07:49:05.473Z,19.77
2022-12-15T07:51:31.913Z,20.32
2022-12-15T07:53:58.330Z,23.71
2022-12-15T07:56:24.748Z,30.96
2022-12-15T07:58:51.237Z,23.21
2022-12-15T08:01:17.764Z,24.41
2022-12-15T08:03:44.312Z,21.64
2022-12-15T08:06:10.931Z,23.63
2022-12-15T08:08:37.415Z,21.92
2022-12-15T08:11:03.868Z,22.78
2022-12-15T08:14:01.281Z,25.57
2022-12-15T08:16:16.770Z,39.80
2022-12-15T08:18:43.213Z,72.43
2022-12-15T08:21:09.631Z,103.04
2022-12-15T08:23:36.127Z,134.46
2022-12-15T08:26:02.660Z,98.65
2022-12-15T08:28:29.132Z,70.00
2022-12-15T08:30:55.588Z,48.16
2022-12-15T08:33:22.037Z,57.71
2022-12-15T08:35:56.923Z,71.29
2022-12-15T08:38:23.830Z,54.71
2022-12-15T08:40:50.270Z,85.53
2022-12-15T08:43:16.724Z,75.33
2022-12-15T08:45:43.249Z,77.65
2022-12-15T08:48:09.734Z,74.39
2022-12-15T08:50:36.175Z,38.12
2022-12-15T08:53:29.495Z,63.55
2022-12-15T08:55:49.104Z,62.14
2022-12-15T08:58:15.531Z,89.61
2022-12-15T09:00:41.946Z,85.88
2022-12-15T09:03:08.387Z,113.34
2022-12-15T09:05:34.870Z,79.87
2022-12-15T09:08:06.389Z,72.58
2022-12-15T09:10:33.223Z,90.49
2022-12-15T09:12:59.694Z,74.37
2022-12-15T09:15:45.455Z,79.43
2022-12-15T09:18:12.513Z,174.29
2022-12-15T09:20:38.941Z,146.31
2022-12-15T09:23:05.409Z,190.64
2022-12-15T09:25:31.847Z,207.63
2022-12-15T09:27:58.263Z,217.93
2022-12-15T09:30:24.782Z,278.93
2022-12-15T09:32:51.304Z,304.38
2022-12-15T09:35:17.751Z,256.46
2022-12-15T09:37:48.493Z,254.49
2022-12-15T09:40:18.087Z,250.19
2022-12-15T09:42:44.983Z,230.05
2022-12-15T09:45:11.468Z,227.04
2022-12-15T09:47:38.179Z,180.47
2022-12-15T09:50:04.769Z,194.38
2022-12-15T09:52:32.369Z,234.10
2022-12-15T09:54:59.077Z,189.55
2022-12-15T09:57:26.604Z,141.00
2022-12-15T09:59:54.197Z,166.21
2022-12-15T10:02:20.899Z,246.35
2022-12-15T10:04:50.730Z,290.13
2022-12-15T10:07:18.014Z,281.81
2022-12-15T10:09:44.426Z,203.20
2022-12-15T10:12:11.558Z,296.79
2022-12-15T10:14:38.044Z,194.84
2022-12-15T10:17:04.493Z,222.76
2022-12-15T10:19:30.956Z,113.80
2022-12-15T10:21:57.552Z,112.56
2022-12-15T10:25:07.400Z,118.21
2022-12-15T10:27:10.949Z,82.57
2022-12-15T10:29:37.896Z,52.26
2022-12-15T10:32:04.339Z,59.14
2022-12-15T10:34:30.841Z,36.17
2022-12-15T10:36:57.279Z,35.93
2022-12-15T10:39:23.719Z,25.10
2022-12-15T10:41:50.156Z,17.94
2022-12-15T10:44:16.580Z,20.13
2022-12-15T10:46:43.171Z,23.58
2022-12-15T10:49:09.599Z,13.97
2022-12-15T10:51:36.046Z,13.83
2022-12-15T10:54:02.536Z,26.92
2022-12-15T10:56:33.317Z,26.20
2022-12-15T10:59:00.469Z,23.25
2022-12-15T11:01:27.537Z,26.76
2022-12-15T11:03:55.286Z,23.99
2022-12-15T11:06:22.663Z,24.98
2022-12-15T11:08:49.354Z,25.06
2022-12-15T11:11:16.821Z,53.79
2022-12-15T11:13:43.832Z,47.50
2022-12-15T11:16:11.042Z,28.20
2022-12-15T11:18:37.632Z,30.83
2022-12-15T11:21:05.250Z,53.78
2022-12-15T11:23:33.276Z,42.25
2022-12-15T11:26:04.907Z,31.92
2022-12-15T11:28:33.419Z,41.75
2022-12-15T11:30:59.878Z,57.26
2022-12-15T11:33:26.320Z,41.16
2022-12-15T11:35:52.908Z,52.95
2022-12-15T11:38:19.568Z,58.75
2022-12-15T11:40:46.023Z,38.77
2022-12-15T11:43:12.469Z,35.16
2022-12-15T11:45:39.247Z,31.28
2022-12-15T11:48:05.837Z,33.56
2022-12-15T11:50:32.436Z,38.03
2022-12-15T11:52:59.005Z,48.64
2022-12-15T11:55:31.045Z,31.50
2022-12-15T11:58:00.754Z,17.77
2022-12-15T12:00:27.264Z,18.06
2022-12-15T12:02:53.711Z,16.97
2022-12-15T12:05:21.034Z,15.49
2022-12-15T12:07:49.063Z,12.68
2022-12-15T12:10:15.571Z,11.57
2022-12-15T12:12:42.107Z,13.84
2022-12-15T12:15:10.435Z,9.16
2022-12-15T12:17:37.020Z,17.50
2022-12-15T12:20:09.509Z,74.88
2022-12-15T12:22:38.227Z,49.19
2022-12-15T12:25:04.632Z,12.85
2022-12-15T12:27:31.406Z,12.78
2022-12-15T12:29:58.013Z,17.61
2022-12-15T12:32:25.608Z,29.01
2022-12-15T12:34:52.197Z,23.50
2022-12-15T12:37:38.668Z,22.81
2022-12-15T12:40:05.105Z,16.06
2022-12-15T12:42:31.498Z,17.34
2022-12-15T12:44:57.951Z,12.65
2022-12-15T12:47:25.425Z,14.76
2022-12-15T12:49:51.875Z,14.61
2022-12-15T12:52:18.363Z,11.04
2022-12-15T12:54:46.040Z,9.27
2022-12-15T12:57:15.639Z,9.56
2022-12-15T13:08:11.355Z,7.08
2022-12-15T13:10:58.562Z,7.13
2022-12-15T13:13:30.249Z,7.72
2022-12-15T13:15:58.475Z,8.74
2022-12-15T13:18:27.376Z,8.53
2022-12-15T13:20:56.592Z,8.95
2022-12-15T13:23:26.009Z,8.35
2022-12-15T13:25:56.419Z,8.25
2022-12-15T13:28:25.470Z,9.04
2022-12-15T13:30:54.690Z,9.33
2022-12-15T13:33:23.678Z,8.86
2022-12-15T13:35:51.264Z,8.84
2022-12-15T13:38:20.869Z,8.16
2022-12-15T13:40:50.559Z,8.19
2022-12-15T13:43:19.052Z,8.19
2022-12-15T13:45:48.894Z,8.49
2022-12-15T13:48:18.366Z,9.04
2022-12-15T13:50:51.104Z,9.80
2022-12-15T13:53:19.749Z,10.29
2022-12-15T13:55:51.104Z,9.91
2022-12-15T13:58:17.779Z,9.64
2022-12-15T14:00:46.365Z,9.24
2022-12-15T14:03:16.028Z,10.92
2022-12-15T14:05:43.572Z,9.15
2022-12-15T14:08:12.198Z,9.37
2022-12-15T14:10:39.794Z,8.99
2022-12-15T14:13:15.874Z,9.07
2022-12-15T14:15:44.056Z,9.08
2022-12-15T14:18:12.674Z,11.03
2022-12-15T14:20:40.259Z,17.77
2022-12-15T14:23:06.857Z,8.99
2022-12-15T14:25:33.449Z,12.12
2022-12-15T14:28:01.050Z,24.25
2022-12-15T14:30:27.538Z,28.64
2022-12-15T14:32:55.219Z,19.26
2022-12-15T14:35:21.810Z,17.39
2022-12-15T14:37:48.467Z,13.20
2022-12-15T14:40:16.064Z,9.54
2022-12-15T14:42:43.640Z,14.30
2022-12-15T14:45:10.214Z,17.74
2022-12-15T14:47:37.813Z,17.73
2022-12-15T14:50:05.395Z,15.90
2022-12-15T14:52:31.979Z,13.17
2022-12-15T14:54:59.589Z,10.60
2022-12-15T14:57:26.179Z,11.91
2022-12-15T14:59:52.763Z,15.14
2022-12-15T15:02:20.435Z,15.15
2022-12-15T15:04:47.940Z,13.67
2022-12-15T15:07:14.402Z,15.13
2022-12-15T15:09:40.960Z,36.15
2022-12-15T15:12:07.423Z,16.19
2022-12-15T15:14:34.327Z,20.37
2022-12-15T15:17:03.026Z,26.43
2022-12-15T15:19:32.351Z,17.06
2022-12-15T15:22:00.148Z,14.68
2022-12-15T15:24:27.743Z,16.25
2022-12-15T15:26:54.381Z,14.69
2022-12-15T15:29:21.202Z,20.00
2022-12-15T15:31:47.666Z,12.97
2022-12-15T15:34:14.138Z,10.21
2022-12-15T15:36:40.791Z,10.05
2022-12-15T15:39:08.293Z,9.79
2022-12-15T15:41:35.888Z,10.16
2022-12-15T15:44:02.479Z,10.19
2022-12-15T15:46:29.140Z,11.95
2022-12-15T15:48:56.652Z,12.07
2022-12-15T15:51:23.245Z,12.16
2022-12-15T15:53:50.823Z,11.74
2022-12-15T15:56:17.407Z,10.84
2022-12-15T15:58:43.921Z,12.30
2022-12-15T16:01:13.264Z,17.53
2022-12-15T16:03:41.295Z,19.60
2022-12-15T16:06:08.368Z,14.95
2022-12-15T16:08:35.223Z,15.75
2022-12-15T16:11:01.994Z,14.42
2022-12-15T16:13:28.522Z,9.91
2022-12-15T16:15:55.017Z,10.09
2022-12-15T16:18:21.471Z,10.88
2022-12-15T16:20:47.899Z,10.27
2022-12-15T16:23:14.324Z,11.33
2022-12-15T16:25:48.452Z,11.12
2022-12-15T16:28:15.082Z,18.70
2022-12-15T16:30:41.619Z,22.57
2022-12-15T16:33:08.111Z,10.49
2022-12-15T16:35:34.558Z,8.59
2022-12-15T16:38:00.987Z,8.44
2022-12-15T16:40:27.422Z,12.58
2022-12-15T16:42:53.831Z,12.59
2022-12-15T16:45:20.238Z,9.75
2022-12-15T16:47:46.650Z,17.90
2022-12-15T16:50:13.118Z,8.92
2022-12-15T16:52:39.527Z,8.48
2022-12-15T16:55:05.938Z,6.87
2022-12-15T16:57:32.322Z,8.13
2022-12-15T16:59:58.698Z,6.85
2022-12-15T17:02:27.712Z,5.91
2022-12-15T17:04:54.371Z,5.33
2022-12-15T17:07:21.190Z,4.78
2022-12-15T17:09:47.647Z,4.44
2022-12-15T17:12:14.058Z,6.23
2022-12-15T17:14:41.038Z,7.38
2022-12-15T17:17:07.810Z,9.21
2022-12-15T17:19:34.230Z,9.89
2022-12-15T17:22:00.646Z,10.19
2022-12-15T17:24:27.131Z,8.60
2022-12-15T17:26:53.579Z,6.88
2022-12-15T17:29:19.994Z,7.88
2022-12-15T17:31:46.489Z,8.80
2022-12-15T17:34:13.006Z,7.62
2022-12-15T17:36:39.501Z,6.11
2022-12-15T17:39:05.907Z,7.75
2022-12-15T17:44:36.179Z,9.25
2022-12-15T17:47:03.558Z,8.66
2022-12-15T17:49:35.106Z,9.06
2022-12-15T17:52:02.351Z,8.81
2022-12-15T17:54:28.779Z,8.08
2022-12-15T17:56:55.206Z,8.24
2022-12-15T17:59:21.643Z,10.00
2022-12-15T18:01:48.169Z,13.00
2022-12-15T18:04:14.733Z,14.63
2022-12-15T18:06:41.214Z,9.56
2022-12-15T18:09:07.650Z,7.01
2022-12-15T18:11:34.090Z,7.36
2022-12-15T18:14:00.531Z,7.26
2022-12-15T18:16:27.057Z,7.50
2022-12-15T18:18:53.573Z,6.46
2022-12-15T18:21:19.986Z,5.97
2022-12-15T18:23:46.423Z,4.95
2022-12-15T18:26:12.822Z,5.28
2022-12-15T18:28:39.238Z,9.85
2022-12-15T18:31:05.679Z,11.81
2022-12-15T18:33:32.475Z,10.79
2022-12-15T18:35:59.143Z,10.89
2022-12-15T18:38:25.551Z,7.59
2022-12-15T18:40:51.973Z,7.71
2022-12-15T18:43:18.496Z,5.77
2022-12-15T18:45:44.891Z,4.65
2022-12-15T18:48:11.332Z,4.75
2022-12-15T18:50:37.755Z,5.50
2022-12-15T18:53:04.239Z,4.86
2022-12-15T18:55:30.684Z,4.75
2022-12-15T18:57:57.103Z,4.86
2022-12-15T19:00:23.533Z,6.30
2022-12-15T19:02:50.084Z,5.74
2022-12-15T19:05:16.562Z,6.36
2022-12-15T19:07:42.972Z,9.01
2022-12-15T19:10:09.415Z,16.28
2022-12-15T19:12:35.881Z,10.75
2022-12-15T19:15:02.392Z,15.12
2022-12-15T19:17:28.816Z,15.50
2022-12-15T19:19:55.228Z,8.71
2022-12-15T19:22:21.658Z,6.62
2022-12-15T19:24:48.231Z,8.69
2022-12-15T19:27:14.618Z,6.47
2022-12-15T19:29:41.038Z,6.93
2022-12-15T19:32:07.449Z,6.44
2022-12-15T19:34:33.846Z,6.71
2022-12-15T19:37:00.253Z,6.50
2022-12-15T19:39:26.682Z,6.81
2022-12-15T19:41:53.105Z,7.44
2022-12-15T19:44:21.356Z,7.01
2022-12-15T19:46:47.782Z,7.42
2022-12-15T19:49:14.235Z,7.37
2022-12-15T19:51:40.678Z,7.34
2022-12-15T19:54:07.136Z,7.50
2022-12-15T19:56:33.579Z,7.23
2022-12-15T19:58:59.972Z,6.50
2022-12-15T20:01:26.475Z,6.71
2022-12-15T20:03:52.989Z,7.46
2022-12-15T20:06:19.394Z,7.73
2022-12-15T20:08:45.809Z,8.00
2022-12-15T20:11:12.250Z,7.07
2022-12-15T20:13:38.670Z,7.07
2022-12-15T20:16:05.183Z,6.86
2022-12-15T20:18:31.960Z,8.13
2022-12-15T20:20:58.700Z,6.57
2022-12-15T20:23:25.206Z,6.29
2022-12-15T20:25:51.646Z,6.51
2022-12-15T20:28:18.027Z,6.54
2022-12-15T20:30:44.463Z,8.04
2022-12-15T20:33:11.147Z,7.19
2022-12-15T20:35:37.543Z,11.29
2022-12-15T20:38:03.996Z,27.53
2022-12-15T20:40:30.398Z,22.17
2022-12-15T20:42:56.820Z,15.84
2022-12-15T20:45:23.249Z,12.18
2022-12-15T20:47:49.654Z,11.65
2022-12-15T20:50:16.237Z,8.94
2022-12-15T20:52:42.669Z,9.15
2022-12-15T20:55:09.093Z,9.07
2022-12-15T20:57:35.491Z,11.13
2022-12-15T21:00:01.923Z,8.83
2022-12-15T21:02:28.499Z,8.89
2022-12-15T21:04:54.959Z,8.46
2022-12-15T21:07:21.460Z,7.74
2022-12-15T21:09:47.871Z,7.41
2022-12-15T21:12:14.274Z,7.70
2022-12-15T21:14:40.682Z,7.49
2022-12-15T21:17:07.241Z,8.49
2022-12-15T21:19:33.728Z,7.79
2022-12-15T21:22:00.157Z,7.84
2022-12-15T21:24:26.590Z,7.78
2022-12-15T21:26:53.006Z,7.17
2022-12-15T21:29:20.128Z,8.67
2022-12-15T21:31:46.508Z,8.15
2022-12-15T21:34:12.952Z,7.51
2022-12-15T21:36:39.455Z,6.88
2022-12-15T21:39:05.839Z,6.89
2022-12-15T21:41:32.222Z,9.74
2022-12-15T21:43:58.644Z,7.23
2022-12-15T21:46:27.943Z,7.10
2022-12-15T21:48:54.645Z,7.06
2022-12-15T21:51:21.111Z,7.19
2022-12-15T21:53:47.506Z,7.97
2022-12-15T21:56:13.938Z,7.26
2022-12-15T21:58:40.331Z,7.21
2022-12-15T22:01:06.757Z,7.26
2022-12-15T22:03:33.198Z,7.36
2022-12-15T22:05:59.669Z,7.40
2022-12-15T22:08:26.106Z,6.87
2022-12-15T22:10:52.548Z,7.36
2022-12-15T22:13:21.268Z,7.16
2022-12-15T22:15:47.658Z,7.09
2022-12-15T22:18:14.120Z,7.63
2022-12-15T22:20:40.525Z,7.41
2022-12-15T22:23:06.966Z,7.17
2022-12-15T22:25:33.385Z,7.49
2022-12-15T22:27:59.791Z,7.81
2022-12-15T22:30:26.218Z,7.65
2022-12-15T22:32:52.631Z,7.78
2022-12-15T22:35:20.275Z,7.01
2022-12-15T22:37:46.690Z,7.23
2022-12-15T22:40:13.105Z,7.28
2022-12-15T22:42:39.543Z,8.70
2022-12-15T22:45:05.951Z,7.64
2022-12-15T22:47:32.369Z,7.33
2022-12-15T22:49:58.800Z,7.46
2022-12-15T22:52:25.216Z,8.26
2022-12-15T22:54:51.646Z,7.58
2022-12-15T22:57:18.310Z,6.66
2022-12-15T22:59:44.756Z,6.41
2022-12-15T23:02:11.150Z,8.44
2022-12-15T23:04:37.537Z,8.61
2022-12-15T23:07:03.967Z,6.17
2022-12-15T23:09:30.425Z,6.56
2022-12-15T23:11:56.844Z,7.20
2022-12-15T23:14:23.274Z,6.71
2022-12-15T23:16:49.681Z,7.87
2022-12-15T23:19:16.980Z,7.32
2022-12-15T23:21:43.403Z,6.51
2022-12-15T23:24:09.814Z,7.39
2022-12-15T23:26:36.266Z,6.17
2022-12-15T23:29:02.694Z,6.66
2022-12-15T23:31:29.186Z,6.84
2022-12-15T23:33:55.714Z,6.52
2022-12-15T23:36:22.131Z,7.00
2022-12-15T23:38:48.549Z,7.14
2022-12-15T23:41:15.050Z,9.38
2022-12-15T23:43:41.444Z,7.23
2022-12-15T23:46:08.373Z,9.35
2022-12-15T23:48:34.873Z,9.43
2022-12-15T23:51:01.297Z,8.18
2022-12-15T23:53:27.739Z,8.13
2022-12-15T23:55:54.173Z,7.39
2022-12-15T23:58:20.611Z,7.62
